PBD239 USHH-USNN
Flight info
| Callsign | PBD239 |
|---|---|
| Flight time | 0h 41m |
| Altitude | 27000 |
| Route | KUPEN1C KUPEN L870 ULGUN M59 TETSI TETSI1T |
| Aircraft | B738/M-SDE2E3FGHIRWXY/LB1 |
Departure
| Time | 2026-04-25 12:56 |
|---|---|
| Airport | Khanty Mansiysk Airport (USHH) |
Arrival
| Time | 2026-04-25 13:37 |
|---|---|
| Airport | Nizhnevartovsk Airport (USNN) |
| Time | Latitude | Longitude | Altitude | Speed | Heading |
|---|---|---|---|---|---|
| 2026-04-25 12:42 | 61.02707 | 69.09224 | 142 ft | 0 kts | 254° |
| 2026-04-25 12:48 | 61.02707 | 69.09216 | 142 ft | 0 kts | 267° |
| 2026-04-25 12:49 | 61.02713 | 69.09187 | 142 ft | 2 kts | 320° |
| 2026-04-25 12:49 | 61.02747 | 69.09187 | 141 ft | 7 kts | 12° |
| 2026-04-25 12:49 | 61.02790 | 69.09203 | 141 ft | 6 kts | 1° |
| 2026-04-25 12:49 | 61.02838 | 69.09184 | 140 ft | 6 kts | 355° |
| 2026-04-25 12:50 | 61.02846 | 69.09184 | 140 ft | 0 kts | 2° |
| 2026-04-25 12:51 | 61.02847 | 69.09183 | 140 ft | 0 kts | 353° |
| 2026-04-25 12:51 | 61.02865 | 69.09169 | 140 ft | 4 kts | 330° |
| 2026-04-25 12:51 | 61.02885 | 69.09129 | 140 ft | 8 kts | 307° |
| 2026-04-25 12:51 | 61.02887 | 69.08885 | 140 ft | 19 kts | 257° |
| 2026-04-25 12:52 | 61.02858 | 69.08650 | 140 ft | 13 kts | 250° |
| 2026-04-25 12:52 | 61.02829 | 69.08452 | 140 ft | 15 kts | 255° |
| 2026-04-25 12:52 | 61.02802 | 69.08246 | 140 ft | 12 kts | 256° |
| 2026-04-25 12:52 | 61.02788 | 69.08115 | 139 ft | 15 kts | 257° |
| 2026-04-25 12:53 | 61.02752 | 69.07819 | 137 ft | 14 kts | 256° |
| 2026-04-25 12:53 | 61.02725 | 69.07604 | 137 ft | 16 kts | 255° |
| 2026-04-25 12:53 | 61.02695 | 69.07368 | 137 ft | 16 kts | 254° |
| 2026-04-25 12:53 | 61.02663 | 69.07129 | 137 ft | 17 kts | 255° |
| 2026-04-25 12:54 | 61.02632 | 69.06897 | 137 ft | 17 kts | 254° |
| 2026-04-25 12:54 | 61.02601 | 69.06652 | 137 ft | 16 kts | 256° |
| 2026-04-25 12:54 | 61.02576 | 69.06458 | 137 ft | 12 kts | 252° |
| 2026-04-25 12:54 | 61.02550 | 69.06310 | 137 ft | 9 kts | 237° |
| 2026-04-25 12:55 | 61.02528 | 69.06229 | 137 ft | 5 kts | 307° |
| 2026-04-25 12:55 | 61.02542 | 69.06222 | 137 ft | 7 kts | 9° |
| 2026-04-25 12:55 | 61.02586 | 69.06488 | 137 ft | 33 kts | 77° |
| 2026-04-25 12:55 | 61.02687 | 69.07344 | 137 ft | 91 kts | 75° |
| 2026-04-25 12:56 | 61.02895 | 69.08971 | 141 ft | 142 kts | 74° |
| 2026-04-25 12:56 | 61.03183 | 69.11212 | 216 ft | 177 kts | 76° |
| 2026-04-25 12:56 | 61.03502 | 69.13626 | 911 ft | 172 kts | 76° |
| 2026-04-25 12:56 | 61.03817 | 69.15998 | 1473 ft | 178 kts | 77° |
| 2026-04-25 12:57 | 61.04129 | 69.18534 | 1971 ft | 188 kts | 79° |
| 2026-04-25 12:57 | 61.04452 | 69.21292 | 2300 ft | 210 kts | 78° |
| 2026-04-25 12:57 | 61.04823 | 69.24346 | 2771 ft | 229 kts | 79° |
| 2026-04-25 12:57 | 61.05175 | 69.27615 | 3434 ft | 243 kts | 80° |
| 2026-04-25 12:58 | 61.05542 | 69.31086 | 4130 ft | 254 kts | 80° |
| 2026-04-25 12:58 | 61.05930 | 69.34679 | 4970 ft | 259 kts | 80° |
| 2026-04-25 12:58 | 61.06323 | 69.38318 | 5789 ft | 263 kts | 80° |
| 2026-04-25 12:58 | 61.06723 | 69.42018 | 6601 ft | 268 kts | 81° |
| 2026-04-25 12:59 | 61.07126 | 69.45757 | 7382 ft | 272 kts | 81° |
| 2026-04-25 12:59 | 61.07538 | 69.49598 | 8155 ft | 276 kts | 81° |
| 2026-04-25 12:59 | 61.07951 | 69.53464 | 8890 ft | 281 kts | 82° |
| 2026-04-25 12:59 | 61.08374 | 69.57423 | 9615 ft | 285 kts | 82° |
| 2026-04-25 13:00 | 61.08804 | 69.61482 | 10090 ft | 300 kts | 82° |
| 2026-04-25 13:00 | 61.08950 | 69.62882 | 10120 ft | 309 kts | 82° |
| 2026-04-25 13:00 | 61.09759 | 69.70570 | 10620 ft | 340 kts | 82° |
| 2026-04-25 13:00 | 61.10267 | 69.75347 | 11205 ft | 347 kts | 82° |
| 2026-04-25 13:01 | 61.10791 | 69.80275 | 11869 ft | 352 kts | 82° |
| 2026-04-25 13:01 | 61.11312 | 69.85213 | 12514 ft | 356 kts | 82° |
| 2026-04-25 13:01 | 61.11840 | 69.90241 | 13196 ft | 359 kts | 82° |
| 2026-04-25 13:01 | 61.12366 | 69.95274 | 13823 ft | 363 kts | 82° |
| 2026-04-25 13:02 | 61.12900 | 70.00408 | 14455 ft | 366 kts | 82° |
| 2026-04-25 13:02 | 61.13423 | 70.05544 | 15058 ft | 370 kts | 83° |
| 2026-04-25 13:02 | 61.13921 | 70.10771 | 15654 ft | 373 kts | 83° |
| 2026-04-25 13:02 | 61.14426 | 70.16098 | 16242 ft | 376 kts | 83° |
| 2026-04-25 13:03 | 61.14933 | 70.21407 | 16803 ft | 380 kts | 83° |
| 2026-04-25 13:03 | 61.15447 | 70.26756 | 17355 ft | 383 kts | 83° |
| 2026-04-25 13:03 | 61.15974 | 70.32233 | 17901 ft | 386 kts | 83° |
| 2026-04-25 13:03 | 61.16495 | 70.37656 | 18444 ft | 389 kts | 83° |
| 2026-04-25 13:04 | 61.17023 | 70.43147 | 18997 ft | 391 kts | 83° |
| 2026-04-25 13:04 | 61.17548 | 70.48643 | 19512 ft | 394 kts | 83° |
| 2026-04-25 13:04 | 61.18080 | 70.54230 | 20006 ft | 397 kts | 83° |
| 2026-04-25 13:04 | 61.18613 | 70.59858 | 20485 ft | 400 kts | 83° |
| 2026-04-25 13:05 | 61.19150 | 70.65552 | 20952 ft | 403 kts | 84° |
| 2026-04-25 13:05 | 61.19688 | 70.71266 | 21431 ft | 405 kts | 84° |
| 2026-04-25 13:05 | 61.20226 | 70.77023 | 21863 ft | 409 kts | 84° |
| 2026-04-25 13:05 | 61.20582 | 70.80834 | 22149 ft | 411 kts | 84° |
| 2026-04-25 13:06 | 61.21305 | 70.88650 | 22688 ft | 415 kts | 84° |
| 2026-04-25 13:06 | 61.21848 | 70.94574 | 23080 ft | 419 kts | 84° |
| 2026-04-25 13:06 | 61.22377 | 71.00524 | 23465 ft | 422 kts | 84° |
| 2026-04-25 13:06 | 61.22902 | 71.06510 | 23838 ft | 425 kts | 84° |
| 2026-04-25 13:07 | 61.23251 | 71.10503 | 24097 ft | 427 kts | 84° |
| 2026-04-25 13:07 | 61.23957 | 71.18625 | 24602 ft | 431 kts | 84° |
| 2026-04-25 13:07 | 61.24490 | 71.24779 | 24970 ft | 433 kts | 84° |
| 2026-04-25 13:07 | 61.25015 | 71.30890 | 25331 ft | 436 kts | 84° |
| 2026-04-25 13:08 | 61.25544 | 71.37077 | 25674 ft | 438 kts | 84° |
| 2026-04-25 13:08 | 61.26075 | 71.43324 | 26025 ft | 441 kts | 84° |
| 2026-04-25 13:08 | 61.26428 | 71.47492 | 26247 ft | 443 kts | 84° |
| 2026-04-25 13:08 | 61.27142 | 71.55969 | 26678 ft | 445 kts | 84° |
| 2026-04-25 13:09 | 61.27673 | 71.62337 | 26751 ft | 450 kts | 84° |
| 2026-04-25 13:09 | 61.28201 | 71.68707 | 26753 ft | 456 kts | 85° |
| 2026-04-25 13:09 | 61.28736 | 71.75171 | 26749 ft | 460 kts | 84° |
| 2026-04-25 13:09 | 61.29281 | 71.81786 | 26748 ft | 460 kts | 84° |
| 2026-04-25 13:10 | 61.29635 | 71.86102 | 26748 ft | 459 kts | 84° |
| 2026-04-25 13:10 | 61.30341 | 71.94773 | 26749 ft | 457 kts | 84° |
| 2026-04-25 13:10 | 61.30864 | 72.01262 | 26750 ft | 457 kts | 84° |
| 2026-04-25 13:10 | 61.31388 | 72.07790 | 26750 ft | 458 kts | 84° |
| 2026-04-25 13:11 | 61.31963 | 72.14329 | 26750 ft | 459 kts | 83° |
| 2026-04-25 13:11 | 61.32574 | 72.20812 | 26750 ft | 459 kts | 83° |
| 2026-04-25 13:11 | 61.32984 | 72.25156 | 26750 ft | 459 kts | 83° |
| 2026-04-25 13:11 | 61.33803 | 72.33890 | 26750 ft | 459 kts | 83° |
| 2026-04-25 13:12 | 61.34404 | 72.40367 | 26750 ft | 459 kts | 83° |
| 2026-04-25 13:12 | 61.35003 | 72.46866 | 26750 ft | 459 kts | 83° |
| 2026-04-25 13:12 | 61.35602 | 72.53418 | 26749 ft | 459 kts | 83° |
| 2026-04-25 13:12 | 61.35799 | 72.55590 | 26750 ft | 459 kts | 83° |
| 2026-04-25 13:13 | 61.36778 | 72.66415 | 26750 ft | 459 kts | 84° |
| 2026-04-25 13:13 | 61.37167 | 72.70742 | 26750 ft | 458 kts | 84° |
| 2026-04-25 13:13 | 61.37944 | 72.79433 | 26749 ft | 458 kts | 84° |
| 2026-04-25 13:13 | 61.38528 | 72.86008 | 26750 ft | 458 kts | 84° |
| 2026-04-25 13:14 | 61.39104 | 72.92529 | 26750 ft | 458 kts | 84° |
| 2026-04-25 13:14 | 61.39673 | 72.99012 | 26750 ft | 458 kts | 84° |
| 2026-04-25 13:14 | 61.40245 | 73.05592 | 26749 ft | 458 kts | 84° |
| 2026-04-25 13:14 | 61.40615 | 73.09871 | 26749 ft | 457 kts | 83° |
| 2026-04-25 13:15 | 61.41177 | 73.16402 | 26749 ft | 456 kts | 83° |
| 2026-04-25 13:15 | 61.41919 | 73.25064 | 26749 ft | 455 kts | 83° |
| 2026-04-25 13:15 | 61.42472 | 73.31554 | 26750 ft | 455 kts | 83° |
| 2026-04-25 13:15 | 61.43028 | 73.38111 | 26750 ft | 456 kts | 83° |
| 2026-04-25 13:16 | 61.43578 | 73.44637 | 26750 ft | 456 kts | 83° |
| 2026-04-25 13:16 | 61.43939 | 73.48949 | 26750 ft | 456 kts | 83° |
| 2026-04-25 13:16 | 61.44479 | 73.55428 | 26750 ft | 456 kts | 83° |
| 2026-04-25 13:16 | 61.45200 | 73.64156 | 26750 ft | 456 kts | 83° |
| 2026-04-25 13:17 | 61.45735 | 73.70658 | 26749 ft | 455 kts | 84° |
| 2026-04-25 13:17 | 61.46263 | 73.77119 | 26749 ft | 455 kts | 84° |
| 2026-04-25 13:17 | 61.46798 | 73.83700 | 26750 ft | 455 kts | 84° |
| 2026-04-25 13:17 | 61.47322 | 73.90198 | 26750 ft | 455 kts | 84° |
| 2026-04-25 13:18 | 61.47673 | 73.94572 | 26750 ft | 455 kts | 84° |
| 2026-04-25 13:18 | 61.48363 | 74.03237 | 26750 ft | 455 kts | 84° |
| 2026-04-25 13:18 | 61.48880 | 74.09775 | 26591 ft | 450 kts | 84° |
| 2026-04-25 13:18 | 61.49231 | 74.16168 | 25984 ft | 442 kts | 91° |
| 2026-04-25 13:19 | 61.49199 | 74.22488 | 25416 ft | 432 kts | 98° |
| 2026-04-25 13:19 | 61.48705 | 74.28520 | 24856 ft | 420 kts | 110° |
| 2026-04-25 13:19 | 61.48056 | 74.32296 | 24482 ft | 413 kts | 116° |
| 2026-04-25 13:19 | 61.47282 | 74.35939 | 24107 ft | 409 kts | 118° |
| 2026-04-25 13:20 | 61.45260 | 74.44782 | 23177 ft | 400 kts | 119° |
| 2026-04-25 13:20 | 61.44064 | 74.49916 | 22639 ft | 395 kts | 120° |
| 2026-04-25 13:20 | 61.42869 | 74.55003 | 22102 ft | 391 kts | 120° |
| 2026-04-25 13:20 | 61.41663 | 74.60101 | 21562 ft | 386 kts | 120° |
| 2026-04-25 13:21 | 61.40874 | 74.63422 | 21207 ft | 383 kts | 120° |
| 2026-04-25 13:21 | 61.39307 | 74.69978 | 20506 ft | 378 kts | 121° |
| 2026-04-25 13:21 | 61.38147 | 74.74810 | 19984 ft | 374 kts | 121° |
| 2026-04-25 13:21 | 61.36992 | 74.79605 | 19466 ft | 370 kts | 121° |
| 2026-04-25 13:22 | 61.35838 | 74.84383 | 18944 ft | 366 kts | 121° |
| 2026-04-25 13:22 | 61.34710 | 74.89042 | 18434 ft | 362 kts | 121° |
| 2026-04-25 13:22 | 61.33966 | 74.92103 | 18103 ft | 360 kts | 121° |
| 2026-04-25 13:23 | 61.31364 | 75.02784 | 16950 ft | 351 kts | 121° |
| 2026-04-25 13:23 | 61.30256 | 75.07317 | 16455 ft | 348 kts | 121° |
| 2026-04-25 13:23 | 61.29171 | 75.11748 | 15972 ft | 344 kts | 121° |
| 2026-04-25 13:23 | 61.28084 | 75.16144 | 15483 ft | 341 kts | 121° |
| 2026-04-25 13:24 | 61.27361 | 75.19030 | 15156 ft | 339 kts | 121° |
| 2026-04-25 13:24 | 61.26291 | 75.23283 | 14674 ft | 337 kts | 121° |
| 2026-04-25 13:24 | 61.24852 | 75.28996 | 14017 ft | 333 kts | 121° |
| 2026-04-25 13:24 | 61.23790 | 75.33209 | 13538 ft | 331 kts | 121° |
| 2026-04-25 13:25 | 61.22731 | 75.37399 | 13056 ft | 328 kts | 121° |
| 2026-04-25 13:25 | 61.21687 | 75.41522 | 12580 ft | 326 kts | 121° |
| 2026-04-25 13:25 | 61.20633 | 75.45679 | 12097 ft | 323 kts | 121° |
| 2026-04-25 13:25 | 61.19946 | 75.48383 | 11782 ft | 322 kts | 121° |
| 2026-04-25 13:26 | 61.18592 | 75.53693 | 11159 ft | 319 kts | 121° |
| 2026-04-25 13:26 | 61.17641 | 75.57422 | 10720 ft | 316 kts | 121° |
| 2026-04-25 13:26 | 61.16625 | 75.61391 | 10286 ft | 312 kts | 122° |
| 2026-04-25 13:26 | 61.15464 | 75.64861 | 10119 ft | 296 kts | 135° |
| 2026-04-25 13:27 | 61.14010 | 75.67553 | 10050 ft | 280 kts | 144° |
| 2026-04-25 13:27 | 61.13001 | 75.69125 | 9976 ft | 272 kts | 146° |
| 2026-04-25 13:27 | 61.11010 | 75.72098 | 9839 ft | 257 kts | 147° |
| 2026-04-25 13:27 | 61.09596 | 75.74188 | 9718 ft | 249 kts | 147° |
| 2026-04-25 13:28 | 61.08191 | 75.76255 | 9341 ft | 251 kts | 147° |
| 2026-04-25 13:28 | 61.07721 | 75.76945 | 9226 ft | 251 kts | 147° |
| 2026-04-25 13:28 | 61.05398 | 75.80360 | 8701 ft | 250 kts | 146° |
| 2026-04-25 13:28 | 61.04456 | 75.81746 | 8491 ft | 249 kts | 146° |
| 2026-04-25 13:29 | 61.02710 | 75.84310 | 8090 ft | 243 kts | 146° |
| 2026-04-25 13:29 | 61.01379 | 75.86263 | 7809 ft | 238 kts | 146° |
| 2026-04-25 13:29 | 61.00023 | 75.88249 | 7517 ft | 243 kts | 146° |
| 2026-04-25 13:30 | 60.97370 | 75.92130 | 6930 ft | 241 kts | 145° |
| 2026-04-25 13:30 | 60.96045 | 75.94065 | 6610 ft | 237 kts | 145° |
| 2026-04-25 13:30 | 60.94765 | 75.95933 | 6339 ft | 235 kts | 145° |
| 2026-04-25 13:31 | 60.92582 | 75.99113 | 5854 ft | 234 kts | 145° |
| 2026-04-25 13:31 | 60.91365 | 76.00884 | 5541 ft | 238 kts | 144° |
| 2026-04-25 13:31 | 60.90115 | 76.02701 | 4979 ft | 249 kts | 144° |
| 2026-04-25 13:31 | 60.88803 | 76.04604 | 4386 ft | 252 kts | 144° |
| 2026-04-25 13:32 | 60.86172 | 76.09674 | 3209 ft | 247 kts | 133° |
| 2026-04-25 13:32 | 60.85075 | 76.12073 | 2765 ft | 243 kts | 132° |
| 2026-04-25 13:33 | 60.82887 | 76.16993 | 1890 ft | 233 kts | 127° |
| 2026-04-25 13:33 | 60.82175 | 76.19795 | 1790 ft | 221 kts | 105° |
| 2026-04-25 13:33 | 60.82132 | 76.22807 | 1787 ft | 210 kts | 76° |
| 2026-04-25 13:33 | 60.82305 | 76.23759 | 1794 ft | 206 kts | 65° |
| 2026-04-25 13:34 | 60.83657 | 76.27229 | 1791 ft | 168 kts | 48° |
| 2026-04-25 13:34 | 60.84487 | 76.28821 | 1795 ft | 162 kts | 46° |
| 2026-04-25 13:34 | 60.85309 | 76.30351 | 1778 ft | 159 kts | 46° |
| 2026-04-25 13:34 | 60.86124 | 76.31857 | 1736 ft | 159 kts | 46° |
| 2026-04-25 13:35 | 60.86940 | 76.33360 | 1491 ft | 154 kts | 46° |
| 2026-04-25 13:35 | 60.87711 | 76.34783 | 1294 ft | 148 kts | 46° |
| 2026-04-25 13:35 | 60.88477 | 76.36208 | 1255 ft | 151 kts | 46° |
| 2026-04-25 13:35 | 60.89263 | 76.37669 | 1152 ft | 153 kts | 46° |
| 2026-04-25 13:36 | 60.90026 | 76.39085 | 916 ft | 149 kts | 46° |
| 2026-04-25 13:36 | 60.90785 | 76.40492 | 701 ft | 146 kts | 46° |
| 2026-04-25 13:36 | 60.91542 | 76.41898 | 520 ft | 145 kts | 46° |
| 2026-04-25 13:36 | 60.92294 | 76.43295 | 443 ft | 147 kts | 46° |
| 2026-04-25 13:37 | 60.93041 | 76.44679 | 373 ft | 146 kts | 46° |
| 2026-04-25 13:37 | 60.93796 | 76.46085 | 198 ft | 143 kts | 46° |
| 2026-04-25 13:37 | 60.94485 | 76.47369 | 132 ft | 116 kts | 45° |
| 2026-04-25 13:37 | 60.94902 | 76.48148 | 143 ft | 49 kts | 42° |
| 2026-04-25 13:38 | 60.95090 | 76.48474 | 144 ft | 30 kts | 41° |
| 2026-04-25 13:38 | 60.95207 | 76.48703 | 146 ft | 17 kts | 44° |
| 2026-04-25 13:38 | 60.95281 | 76.48846 | 147 ft | 13 kts | 42° |
| 2026-04-25 13:38 | 60.95346 | 76.48979 | 148 ft | 11 kts | 56° |
| 2026-04-25 13:39 | 60.95341 | 76.49104 | 147 ft | 2 kts | 124° |
| 2026-04-25 13:39 | 60.95340 | 76.49104 | 147 ft | 0 kts | 123° |
| 2026-04-25 13:39 | 60.95333 | 76.49129 | 147 ft | 6 kts | 122° |
| 2026-04-25 13:39 | 60.95299 | 76.49221 | 147 ft | 7 kts | 135° |
| 2026-04-25 13:40 | 60.95266 | 76.49281 | 147 ft | 5 kts | 140° |
| 2026-04-25 13:40 | 60.95243 | 76.49312 | 147 ft | 2 kts | 150° |
| 2026-04-25 13:40 | 60.95224 | 76.49347 | 147 ft | 1 kts | 133° |
| 2026-04-25 13:40 | 60.95220 | 76.49355 | 147 ft | 0 kts | 132° |